sensor_id;sensor_type;location;lat;lon;timestamp;P1;durP1;ratioP1;P2;durP2;ratioP2
3341;SDS011;1684;50.748;6.154;2023-08-30T00:01:47;12.90;;;10.40;;
3341;SDS011;1684;50.748;6.154;2023-08-30T00:04:15;12.63;;;10.70;;
3341;SDS011;1684;50.748;6.154;2023-08-30T00:06:44;15.50;;;9.93;;
3341;SDS011;1684;50.748;6.154;2023-08-30T00:09:12;12.40;;;10.57;;
3341;SDS011;1684;50.748;6.154;2023-08-30T00:11:40;13.23;;;9.70;;
3341;SDS011;1684;50.748;6.154;2023-08-30T00:14:08;12.77;;;10.10;;
3341;SDS011;1684;50.748;6.154;2023-08-30T00:16:37;17.50;;;10.10;;
3341;SDS011;1684;50.748;6.154;2023-08-30T00:19:07;13.50;;;10.97;;
3341;SDS011;1684;50.748;6.154;2023-08-30T00:21:35;14.67;;;11.43;;
3341;SDS011;1684;50.748;6.154;2023-08-30T00:24:03;14.97;;;10.87;;
3341;SDS011;1684;50.748;6.154;2023-08-30T00:26:32;14.70;;;10.60;;
3341;SDS011;1684;50.748;6.154;2023-08-30T00:29:00;13.07;;;10.13;;
3341;SDS011;1684;50.748;6.154;2023-08-30T00:31:28;17.13;;;10.03;;
3341;SDS011;1684;50.748;6.154;2023-08-30T00:33:56;15.43;;;9.17;;
3341;SDS011;1684;50.748;6.154;2023-08-30T00:36:26;14.30;;;10.03;;
3341;SDS011;1684;50.748;6.154;2023-08-30T00:38:54;12.43;;;9.10;;
3341;SDS011;1684;50.748;6.154;2023-08-30T00:41:23;13.10;;;10.83;;
3341;SDS011;1684;50.748;6.154;2023-08-30T00:43:51;12.93;;;9.50;;
3341;SDS011;1684;50.748;6.154;2023-08-30T00:46:19;12.70;;;10.30;;
3341;SDS011;1684;50.748;6.154;2023-08-30T00:48:48;13.70;;;10.20;;
3341;SDS011;1684;50.748;6.154;2023-08-30T00:51:16;13.70;;;10.70;;
3341;SDS011;1684;50.748;6.154;2023-08-30T00:53:46;11.80;;;10.50;;
3341;SDS011;1684;50.748;6.154;2023-08-30T00:56:14;13.00;;;10.37;;
3341;SDS011;1684;50.748;6.154;2023-08-30T00:58:43;15.93;;;11.10;;
3341;SDS011;1684;50.748;6.154;2023-08-30T01:01:11;14.93;;;9.90;;
3341;SDS011;1684;50.748;6.154;2023-08-30T01:03:40;13.93;;;11.00;;
3341;SDS011;1684;50.748;6.154;2023-08-30T01:06:08;14.10;;;10.73;;
3341;SDS011;1684;50.748;6.154;2023-08-30T01:08:37;13.13;;;9.77;;
3341;SDS011;1684;50.748;6.154;2023-08-30T01:11:08;18.60;;;10.77;;
3341;SDS011;1684;50.748;6.154;2023-08-30T01:13:40;14.87;;;10.57;;
3341;SDS011;1684;50.748;6.154;2023-08-30T01:16:09;16.23;;;11.57;;
3341;SDS011;1684;50.748;6.154;2023-08-30T01:18:38;13.43;;;10.33;;
3341;SDS011;1684;50.748;6.154;2023-08-30T01:21:09;16.17;;;10.63;;
3341;SDS011;1684;50.748;6.154;2023-08-30T01:23:40;15.57;;;11.07;;
3341;SDS011;1684;50.748;6.154;2023-08-30T01:26:13;18.53;;;11.47;;
3341;SDS011;1684;50.748;6.154;2023-08-30T01:28:43;17.27;;;10.37;;
3341;SDS011;1684;50.748;6.154;2023-08-30T01:31:12;15.53;;;10.40;;
3341;SDS011;1684;50.748;6.154;2023-08-30T01:33:42;13.17;;;10.30;;
3341;SDS011;1684;50.748;6.154;2023-08-30T01:36:10;14.77;;;11.13;;
3341;SDS011;1684;50.748;6.154;2023-08-30T01:38:39;14.50;;;11.43;;
3341;SDS011;1684;50.748;6.154;2023-08-30T01:41:08;19.37;;;11.43;;
3341;SDS011;1684;50.748;6.154;2023-08-30T01:43:36;15.43;;;11.60;;
3341;SDS011;1684;50.748;6.154;2023-08-30T01:46:06;14.60;;;11.37;;
3341;SDS011;1684;50.748;6.154;2023-08-30T01:48:35;17.60;;;12.10;;
3341;SDS011;1684;50.748;6.154;2023-08-30T01:51:04;17.47;;;11.50;;
3341;SDS011;1684;50.748;6.154;2023-08-30T01:53:33;14.40;;;12.20;;
3341;SDS011;1684;50.748;6.154;2023-08-30T01:56:02;15.20;;;11.37;;
3341;SDS011;1684;50.748;6.154;2023-08-30T01:58:30;15.93;;;11.70;;
3341;SDS011;1684;50.748;6.154;2023-08-30T02:00:59;15.77;;;11.27;;
3341;SDS011;1684;50.748;6.154;2023-08-30T02:03:29;16.50;;;11.70;;
3341;SDS011;1684;50.748;6.154;2023-08-30T02:06:05;14.23;;;10.20;;
3341;SDS011;1684;50.748;6.154;2023-08-30T02:08:37;15.10;;;11.17;;
3341;SDS011;1684;50.748;6.154;2023-08-30T02:11:07;13.50;;;10.87;;
3341;SDS011;1684;50.748;6.154;2023-08-30T02:13:35;15.10;;;11.80;;
3341;SDS011;1684;50.748;6.154;2023-08-30T02:16:04;15.50;;;12.10;;
3341;SDS011;1684;50.748;6.154;2023-08-30T02:18:34;12.70;;;10.60;;
3341;SDS011;1684;50.748;6.154;2023-08-30T02:21:03;14.03;;;10.47;;
3341;SDS011;1684;50.748;6.154;2023-08-30T02:23:32;14.00;;;8.90;;
3341;SDS011;1684;50.748;6.154;2023-08-30T02:26:01;16.33;;;10.47;;
3341;SDS011;1684;50.748;6.154;2023-08-30T02:28:30;14.13;;;10.77;;
3341;SDS011;1684;50.748;6.154;2023-08-30T02:30:58;12.40;;;10.07;;
3341;SDS011;1684;50.748;6.154;2023-08-30T02:33:26;18.60;;;10.93;;
3341;SDS011;1684;50.748;6.154;2023-08-30T02:35:56;15.53;;;10.70;;
3341;SDS011;1684;50.748;6.154;2023-08-30T02:38:25;13.80;;;12.30;;
3341;SDS011;1684;50.748;6.154;2023-08-30T02:40:53;11.80;;;8.63;;
3341;SDS011;1684;50.748;6.154;2023-08-30T02:43:21;14.93;;;9.97;;
3341;SDS011;1684;50.748;6.154;2023-08-30T02:45:51;17.73;;;10.27;;
3341;SDS011;1684;50.748;6.154;2023-08-30T02:48:20;18.77;;;9.90;;
3341;SDS011;1684;50.748;6.154;2023-08-30T02:50:50;12.30;;;9.23;;
3341;SDS011;1684;50.748;6.154;2023-08-30T02:53:19;14.67;;;10.37;;
3341;SDS011;1684;50.748;6.154;2023-08-30T02:55:48;14.40;;;10.80;;
3341;SDS011;1684;50.748;6.154;2023-08-30T02:58:16;11.47;;;8.83;;
3341;SDS011;1684;50.748;6.154;2023-08-30T03:00:44;14.03;;;10.00;;
3341;SDS011;1684;50.748;6.154;2023-08-30T03:03:12;13.70;;;9.87;;
3341;SDS011;1684;50.748;6.154;2023-08-30T03:05:41;14.00;;;10.10;;
3341;SDS011;1684;50.748;6.154;2023-08-30T03:08:09;13.17;;;9.27;;
3341;SDS011;1684;50.748;6.154;2023-08-30T03:10:39;14.73;;;11.07;;
3341;SDS011;1684;50.748;6.154;2023-08-30T03:13:07;17.40;;;9.57;;
3341;SDS011;1684;50.748;6.154;2023-08-30T03:15:36;15.23;;;9.40;;
3341;SDS011;1684;50.748;6.154;2023-08-30T03:18:04;13.73;;;9.73;;
3341;SDS011;1684;50.748;6.154;2023-08-30T03:20:33;15.70;;;11.13;;
3341;SDS011;1684;50.748;6.154;2023-08-30T03:23:01;17.60;;;11.33;;
3341;SDS011;1684;50.748;6.154;2023-08-30T03:25:30;16.73;;;12.03;;
3341;SDS011;1684;50.748;6.154;2023-08-30T03:27:59;15.80;;;11.57;;
3341;SDS011;1684;50.748;6.154;2023-08-30T03:30:29;18.23;;;10.07;;
3341;SDS011;1684;50.748;6.154;2023-08-30T03:32:58;18.90;;;10.17;;
3341;SDS011;1684;50.748;6.154;2023-08-30T03:35:26;16.77;;;12.17;;
3341;SDS011;1684;50.748;6.154;2023-08-30T03:37:55;17.57;;;11.57;;
3341;SDS011;1684;50.748;6.154;2023-08-30T03:40:23;17.27;;;11.37;;
3341;SDS011;1684;50.748;6.154;2023-08-30T03:42:52;15.67;;;10.37;;
3341;SDS011;1684;50.748;6.154;2023-08-30T03:45:22;15.37;;;11.50;;
3341;SDS011;1684;50.748;6.154;2023-08-30T03:47:50;15.23;;;10.80;;
3341;SDS011;1684;50.748;6.154;2023-08-30T03:50:19;14.30;;;10.00;;
3341;SDS011;1684;50.748;6.154;2023-08-30T03:52:47;15.90;;;11.67;;
3341;SDS011;1684;50.748;6.154;2023-08-30T03:55:15;13.90;;;10.30;;
3341;SDS011;1684;50.748;6.154;2023-08-30T03:57:43;14.77;;;9.60;;
3341;SDS011;1684;50.748;6.154;2023-08-30T04:00:12;12.07;;;8.83;;
3341;SDS011;1684;50.748;6.154;2023-08-30T04:02:41;19.10;;;10.10;;
3341;SDS011;1684;50.748;6.154;2023-08-30T04:05:10;13.93;;;9.83;;
3341;SDS011;1684;50.748;6.154;2023-08-30T04:07:38;13.70;;;10.07;;
3341;SDS011;1684;50.748;6.154;2023-08-30T04:10:07;15.93;;;10.73;;
3341;SDS011;1684;50.748;6.154;2023-08-30T04:12:35;13.63;;;10.93;;
3341;SDS011;1684;50.748;6.154;2023-08-30T04:15:04;13.43;;;9.93;;
3341;SDS011;1684;50.748;6.154;2023-08-30T04:17:32;12.83;;;10.60;;
3341;SDS011;1684;50.748;6.154;2023-08-30T04:20:02;14.63;;;10.47;;
3341;SDS011;1684;50.748;6.154;2023-08-30T04:22:31;15.83;;;11.07;;
3341;SDS011;1684;50.748;6.154;2023-08-30T04:25:01;17.47;;;11.13;;
3341;SDS011;1684;50.748;6.154;2023-08-30T04:27:29;14.77;;;10.43;;
3341;SDS011;1684;50.748;6.154;2023-08-30T04:29:57;15.97;;;9.93;;
3341;SDS011;1684;50.748;6.154;2023-08-30T04:32:25;14.93;;;12.07;;
3341;SDS011;1684;50.748;6.154;2023-08-30T04:34:54;15.30;;;11.63;;
3341;SDS011;1684;50.748;6.154;2023-08-30T04:37:23;15.00;;;10.10;;
3341;SDS011;1684;50.748;6.154;2023-08-30T04:39:51;14.80;;;10.13;;
3341;SDS011;1684;50.748;6.154;2023-08-30T04:42:20;14.10;;;11.23;;
3341;SDS011;1684;50.748;6.154;2023-08-30T04:44:48;13.13;;;9.93;;
3341;SDS011;1684;50.748;6.154;2023-08-30T04:47:16;13.77;;;10.57;;
3341;SDS011;1684;50.748;6.154;2023-08-30T04:49:49;16.00;;;10.00;;
3341;SDS011;1684;50.748;6.154;2023-08-30T04:52:17;14.10;;;10.87;;
3341;SDS011;1684;50.748;6.154;2023-08-30T04:54:47;21.63;;;11.17;;
3341;SDS011;1684;50.748;6.154;2023-08-30T04:57:15;14.10;;;9.93;;
3341;SDS011;1684;50.748;6.154;2023-08-30T04:59:44;15.17;;;10.03;;
3341;SDS011;1684;50.748;6.154;2023-08-30T05:02:12;17.10;;;10.70;;
3341;SDS011;1684;50.748;6.154;2023-08-30T05:04:41;19.13;;;11.80;;
3341;SDS011;1684;50.748;6.154;2023-08-30T05:07:09;14.10;;;10.77;;
3341;SDS011;1684;50.748;6.154;2023-08-30T05:09:37;13.73;;;10.57;;
3341;SDS011;1684;50.748;6.154;2023-08-30T05:12:08;15.80;;;10.43;;
3341;SDS011;1684;50.748;6.154;2023-08-30T05:14:36;12.83;;;9.17;;
3341;SDS011;1684;50.748;6.154;2023-08-30T05:17:04;15.43;;;9.17;;
3341;SDS011;1684;50.748;6.154;2023-08-30T05:19:33;13.13;;;9.33;;
3341;SDS011;1684;50.748;6.154;2023-08-30T05:22:01;15.43;;;11.50;;
3341;SDS011;1684;50.748;6.154;2023-08-30T05:24:30;15.10;;;9.50;;
3341;SDS011;1684;50.748;6.154;2023-08-30T05:26:58;14.90;;;11.10;;
3341;SDS011;1684;50.748;6.154;2023-08-30T05:29:27;17.47;;;10.77;;
3341;SDS011;1684;50.748;6.154;2023-08-30T05:31:56;15.23;;;9.60;;
3341;SDS011;1684;50.748;6.154;2023-08-30T05:34:24;15.03;;;11.00;;
3341;SDS011;1684;50.748;6.154;2023-08-30T05:36:53;16.00;;;10.30;;
3341;SDS011;1684;50.748;6.154;2023-08-30T05:39:21;15.90;;;10.03;;
3341;SDS011;1684;50.748;6.154;2023-08-30T05:41:49;20.27;;;11.00;;
3341;SDS011;1684;50.748;6.154;2023-08-30T05:44:17;17.27;;;9.80;;
3341;SDS011;1684;50.748;6.154;2023-08-30T05:46:47;14.70;;;9.47;;
3341;SDS011;1684;50.748;6.154;2023-08-30T05:49:15;17.20;;;10.67;;
3341;SDS011;1684;50.748;6.154;2023-08-30T05:51:44;15.13;;;10.40;;
3341;SDS011;1684;50.748;6.154;2023-08-30T05:54:13;13.33;;;10.23;;
3341;SDS011;1684;50.748;6.154;2023-08-30T05:56:41;18.63;;;10.30;;
3341;SDS011;1684;50.748;6.154;2023-08-30T05:59:10;12.40;;;10.17;;
3341;SDS011;1684;50.748;6.154;2023-08-30T06:01:38;15.50;;;8.67;;
3341;SDS011;1684;50.748;6.154;2023-08-30T06:04:09;15.20;;;10.30;;
3341;SDS011;1684;50.748;6.154;2023-08-30T06:06:37;14.17;;;9.43;;
3341;SDS011;1684;50.748;6.154;2023-08-30T06:09:05;14.63;;;8.93;;
3341;SDS011;1684;50.748;6.154;2023-08-30T06:11:33;12.80;;;8.10;;
3341;SDS011;1684;50.748;6.154;2023-08-30T06:14:01;12.13;;;8.00;;
3341;SDS011;1684;50.748;6.154;2023-08-30T06:16:30;15.03;;;8.97;;
3341;SDS011;1684;50.748;6.154;2023-08-30T06:18:58;11.77;;;8.63;;
3341;SDS011;1684;50.748;6.154;2023-08-30T06:21:28;14.27;;;9.60;;
3341;SDS011;1684;50.748;6.154;2023-08-30T06:23:56;15.33;;;8.47;;
3341;SDS011;1684;50.748;6.154;2023-08-30T06:26:24;13.23;;;8.17;;
3341;SDS011;1684;50.748;6.154;2023-08-30T06:28:52;11.90;;;9.40;;
3341;SDS011;1684;50.748;6.154;2023-08-30T06:31:30;12.10;;;9.00;;
3341;SDS011;1684;50.748;6.154;2023-08-30T06:33:59;11.33;;;7.90;;
3341;SDS011;1684;50.748;6.154;2023-08-30T06:36:29;10.80;;;8.27;;
3341;SDS011;1684;50.748;6.154;2023-08-30T06:38:57;11.30;;;8.30;;
3341;SDS011;1684;50.748;6.154;2023-08-30T06:41:25;8.90;;;7.43;;
3341;SDS011;1684;50.748;6.154;2023-08-30T06:43:54;11.30;;;8.60;;
3341;SDS011;1684;50.748;6.154;2023-08-30T06:46:23;11.00;;;7.60;;
3341;SDS011;1684;50.748;6.154;2023-08-30T06:48:51;14.07;;;8.10;;
3341;SDS011;1684;50.748;6.154;2023-08-30T06:51:19;11.53;;;7.80;;
3341;SDS011;1684;50.748;6.154;2023-08-30T06:53:49;10.97;;;8.47;;
3341;SDS011;1684;50.748;6.154;2023-08-30T06:56:17;11.20;;;7.57;;
3341;SDS011;1684;50.748;6.154;2023-08-30T06:58:45;12.80;;;7.70;;
3341;SDS011;1684;50.748;6.154;2023-08-30T07:01:13;9.80;;;6.30;;
3341;SDS011;1684;50.748;6.154;2023-08-30T07:03:42;12.13;;;7.97;;
3341;SDS011;1684;50.748;6.154;2023-08-30T07:06:10;10.73;;;7.23;;
3341;SDS011;1684;50.748;6.154;2023-08-30T07:08:39;8.50;;;5.93;;
3341;SDS011;1684;50.748;6.154;2023-08-30T07:11:08;10.27;;;6.20;;
3341;SDS011;1684;50.748;6.154;2023-08-30T07:13:53;10.10;;;7.50;;
3341;SDS011;1684;50.748;6.154;2023-08-30T07:16:21;10.80;;;7.07;;
3341;SDS011;1684;50.748;6.154;2023-08-30T07:18:49;12.13;;;7.40;;
3341;SDS011;1684;50.748;6.154;2023-08-30T07:21:18;15.67;;;7.80;;
3341;SDS011;1684;50.748;6.154;2023-08-30T07:23:46;11.60;;;6.77;;
3341;SDS011;1684;50.748;6.154;2023-08-30T07:26:15;12.50;;;7.90;;
3341;SDS011;1684;50.748;6.154;2023-08-30T07:28:44;8.63;;;5.63;;
3341;SDS011;1684;50.748;6.154;2023-08-30T07:31:13;10.47;;;6.90;;
3341;SDS011;1684;50.748;6.154;2023-08-30T07:33:44;12.93;;;7.10;;
3341;SDS011;1684;50.748;6.154;2023-08-30T07:36:12;10.20;;;6.00;;
3341;SDS011;1684;50.748;6.154;2023-08-30T07:38:41;15.03;;;6.40;;
3341;SDS011;1684;50.748;6.154;2023-08-30T07:41:09;11.20;;;6.80;;
3341;SDS011;1684;50.748;6.154;2023-08-30T07:43:39;9.03;;;5.60;;
3341;SDS011;1684;50.748;6.154;2023-08-30T07:46:08;9.60;;;6.13;;
3341;SDS011;1684;50.748;6.154;2023-08-30T07:48:36;10.03;;;6.13;;
3341;SDS011;1684;50.748;6.154;2023-08-30T07:51:04;9.97;;;6.77;;
3341;SDS011;1684;50.748;6.154;2023-08-30T07:53:32;9.43;;;5.90;;
3341;SDS011;1684;50.748;6.154;2023-08-30T07:56:01;10.43;;;5.87;;
3341;SDS011;1684;50.748;6.154;2023-08-30T07:58:30;10.87;;;6.10;;
3341;SDS011;1684;50.748;6.154;2023-08-30T08:00:59;16.70;;;6.47;;
3341;SDS011;1684;50.748;6.154;2023-08-30T08:03:27;9.70;;;7.77;;
3341;SDS011;1684;50.748;6.154;2023-08-30T08:05:57;9.80;;;5.37;;
3341;SDS011;1684;50.748;6.154;2023-08-30T08:08:26;11.67;;;5.97;;
3341;SDS011;1684;50.748;6.154;2023-08-30T08:10:54;8.00;;;5.63;;
3341;SDS011;1684;50.748;6.154;2023-08-30T08:13:23;9.67;;;5.40;;
3341;SDS011;1684;50.748;6.154;2023-08-30T08:15:51;8.90;;;6.20;;
3341;SDS011;1684;50.748;6.154;2023-08-30T08:18:20;9.20;;;5.40;;
3341;SDS011;1684;50.748;6.154;2023-08-30T08:20:49;11.93;;;6.27;;
3341;SDS011;1684;50.748;6.154;2023-08-30T08:23:17;9.50;;;6.33;;
3341;SDS011;1684;50.748;6.154;2023-08-30T08:25:45;9.37;;;6.00;;
3341;SDS011;1684;50.748;6.154;2023-08-30T08:28:14;11.00;;;6.77;;
3341;SDS011;1684;50.748;6.154;2023-08-30T08:30:43;8.80;;;6.40;;
3341;SDS011;1684;50.748;6.154;2023-08-30T08:33:13;11.40;;;6.53;;
3341;SDS011;1684;50.748;6.154;2023-08-30T08:35:44;11.47;;;6.50;;
3341;SDS011;1684;50.748;6.154;2023-08-30T08:38:12;10.63;;;6.93;;
3341;SDS011;1684;50.748;6.154;2023-08-30T08:40:40;10.53;;;7.03;;
3341;SDS011;1684;50.748;6.154;2023-08-30T08:43:09;11.67;;;6.03;;
3341;SDS011;1684;50.748;6.154;2023-08-30T08:45:38;9.33;;;6.43;;
3341;SDS011;1684;50.748;6.154;2023-08-30T08:48:06;12.07;;;6.53;;
3341;SDS011;1684;50.748;6.154;2023-08-30T08:50:35;10.43;;;6.70;;
3341;SDS011;1684;50.748;6.154;2023-08-30T08:53:05;8.70;;;5.57;;
3341;SDS011;1684;50.748;6.154;2023-08-30T08:55:35;9.00;;;6.27;;
3341;SDS011;1684;50.748;6.154;2023-08-30T08:58:03;10.70;;;6.00;;
3341;SDS011;1684;50.748;6.154;2023-08-30T09:00:32;6.50;;;4.57;;
3341;SDS011;1684;50.748;6.154;2023-08-30T09:03:01;8.23;;;4.43;;
3341;SDS011;1684;50.748;6.154;2023-08-30T09:05:31;7.53;;;4.00;;
3341;SDS011;1684;50.748;6.154;2023-08-30T09:07:59;6.53;;;3.80;;
3341;SDS011;1684;50.748;6.154;2023-08-30T09:10:30;9.37;;;4.97;;
3341;SDS011;1684;50.748;6.154;2023-08-30T09:12:59;11.30;;;5.53;;
3341;SDS011;1684;50.748;6.154;2023-08-30T09:15:31;7.10;;;3.90;;
3341;SDS011;1684;50.748;6.154;2023-08-30T09:17:59;5.80;;;3.83;;
3341;SDS011;1684;50.748;6.154;2023-08-30T09:20:28;5.50;;;3.63;;
3341;SDS011;1684;50.748;6.154;2023-08-30T09:22:56;5.70;;;3.47;;
3341;SDS011;1684;50.748;6.154;2023-08-30T09:25:25;7.80;;;3.60;;
3341;SDS011;1684;50.748;6.154;2023-08-30T09:27:57;7.10;;;4.00;;
3341;SDS011;1684;50.748;6.154;2023-08-30T09:30:26;6.00;;;3.00;;
3341;SDS011;1684;50.748;6.154;2023-08-30T09:33:00;6.60;;;3.87;;
3341;SDS011;1684;50.748;6.154;2023-08-30T09:35:29;8.43;;;3.27;;
3341;SDS011;1684;50.748;6.154;2023-08-30T09:37:58;8.17;;;2.63;;
3341;SDS011;1684;50.748;6.154;2023-08-30T09:40:26;4.67;;;3.10;;
3341;SDS011;1684;50.748;6.154;2023-08-30T09:42:56;6.53;;;3.20;;
3341;SDS011;1684;50.748;6.154;2023-08-30T09:45:40;8.27;;;3.77;;
3341;SDS011;1684;50.748;6.154;2023-08-30T09:48:08;9.43;;;3.73;;
3341;SDS011;1684;50.748;6.154;2023-08-30T09:50:36;5.10;;;2.90;;
3341;SDS011;1684;50.748;6.154;2023-08-30T09:53:07;4.80;;;3.23;;
3341;SDS011;1684;50.748;6.154;2023-08-30T09:55:36;5.03;;;2.80;;
3341;SDS011;1684;50.748;6.154;2023-08-30T09:58:05;6.17;;;3.10;;
3341;SDS011;1684;50.748;6.154;2023-08-30T10:00:34;5.70;;;3.50;;
3341;SDS011;1684;50.748;6.154;2023-08-30T10:03:04;5.67;;;3.20;;
3341;SDS011;1684;50.748;6.154;2023-08-30T10:05:52;7.33;;;3.90;;
3341;SDS011;1684;50.748;6.154;2023-08-30T10:08:21;8.50;;;3.00;;
3341;SDS011;1684;50.748;6.154;2023-08-30T10:10:55;5.97;;;3.40;;
3341;SDS011;1684;50.748;6.154;2023-08-30T10:13:26;5.27;;;3.70;;
3341;SDS011;1684;50.748;6.154;2023-08-30T10:15:56;8.23;;;3.93;;
3341;SDS011;1684;50.748;6.154;2023-08-30T10:18:27;6.73;;;3.60;;
3341;SDS011;1684;50.748;6.154;2023-08-30T10:20:57;5.30;;;3.40;;
3341;SDS011;1684;50.748;6.154;2023-08-30T10:23:27;5.40;;;2.87;;
3341;SDS011;1684;50.748;6.154;2023-08-30T10:25:56;8.03;;;3.67;;
3341;SDS011;1684;50.748;6.154;2023-08-30T10:28:26;6.07;;;3.80;;
3341;SDS011;1684;50.748;6.154;2023-08-30T10:30:56;7.13;;;3.50;;
3341;SDS011;1684;50.748;6.154;2023-08-30T10:33:24;4.93;;;2.90;;
3341;SDS011;1684;50.748;6.154;2023-08-30T10:36:02;5.70;;;3.47;;
3341;SDS011;1684;50.748;6.154;2023-08-30T10:38:32;7.50;;;4.70;;
3341;SDS011;1684;50.748;6.154;2023-08-30T10:41:07;5.70;;;3.63;;
3341;SDS011;1684;50.748;6.154;2023-08-30T10:43:36;8.87;;;3.30;;
3341;SDS011;1684;50.748;6.154;2023-08-30T10:46:05;5.23;;;3.20;;
3341;SDS011;1684;50.748;6.154;2023-08-30T10:48:35;5.00;;;3.73;;
3341;SDS011;1684;50.748;6.154;2023-08-30T10:51:05;5.20;;;3.37;;
3341;SDS011;1684;50.748;6.154;2023-08-30T10:53:34;7.20;;;3.80;;
3341;SDS011;1684;50.748;6.154;2023-08-30T10:56:07;4.90;;;3.43;;
3341;SDS011;1684;50.748;6.154;2023-08-30T10:58:38;5.20;;;3.53;;
3341;SDS011;1684;50.748;6.154;2023-08-30T11:01:07;6.00;;;3.53;;
3341;SDS011;1684;50.748;6.154;2023-08-30T11:03:38;6.60;;;3.80;;
3341;SDS011;1684;50.748;6.154;2023-08-30T11:06:08;6.63;;;4.07;;
3341;SDS011;1684;50.748;6.154;2023-08-30T11:08:41;5.27;;;3.70;;
3341;SDS011;1684;50.748;6.154;2023-08-30T11:11:10;5.47;;;3.60;;
3341;SDS011;1684;50.748;6.154;2023-08-30T11:13:40;5.43;;;4.00;;
3341;SDS011;1684;50.748;6.154;2023-08-30T11:16:08;5.17;;;3.50;;
3341;SDS011;1684;50.748;6.154;2023-08-30T11:18:38;5.70;;;4.10;;
3341;SDS011;1684;50.748;6.154;2023-08-30T11:21:09;4.87;;;3.70;;
3341;SDS011;1684;50.748;6.154;2023-08-30T11:23:39;5.87;;;3.87;;
3341;SDS011;1684;50.748;6.154;2023-08-30T11:26:07;5.70;;;3.90;;
3341;SDS011;1684;50.748;6.154;2023-08-30T11:28:36;9.90;;;4.10;;
3341;SDS011;1684;50.748;6.154;2023-08-30T11:31:07;6.53;;;4.93;;
3341;SDS011;1684;50.748;6.154;2023-08-30T11:33:36;4.77;;;3.37;;
3341;SDS011;1684;50.748;6.154;2023-08-30T11:36:04;4.33;;;3.10;;
3341;SDS011;1684;50.748;6.154;2023-08-30T11:38:34;5.23;;;3.53;;
3341;SDS011;1684;50.748;6.154;2023-08-30T11:41:02;5.07;;;3.70;;
3341;SDS011;1684;50.748;6.154;2023-08-30T11:43:31;4.90;;;3.50;;
3341;SDS011;1684;50.748;6.154;2023-08-30T11:45:59;9.70;;;3.37;;
3341;SDS011;1684;50.748;6.154;2023-08-30T11:48:27;5.40;;;2.80;;
3341;SDS011;1684;50.748;6.154;2023-08-30T11:50:56;5.80;;;3.10;;
3341;SDS011;1684;50.748;6.154;2023-08-30T11:53:24;4.90;;;3.03;;
3341;SDS011;1684;50.748;6.154;2023-08-30T11:55:54;6.03;;;3.60;;
3341;SDS011;1684;50.748;6.154;2023-08-30T11:58:25;4.50;;;2.83;;
3341;SDS011;1684;50.748;6.154;2023-08-30T12:00:53;5.90;;;2.83;;
3341;SDS011;1684;50.748;6.154;2023-08-30T12:03:22;5.03;;;2.33;;
3341;SDS011;1684;50.748;6.154;2023-08-30T12:05:50;5.27;;;2.70;;
3341;SDS011;1684;50.748;6.154;2023-08-30T12:08:19;5.50;;;2.73;;
3341;SDS011;1684;50.748;6.154;2023-08-30T12:10:47;6.80;;;2.90;;
3341;SDS011;1684;50.748;6.154;2023-08-30T12:13:23;3.60;;;2.30;;
3341;SDS011;1684;50.748;6.154;2023-08-30T12:15:52;3.80;;;2.27;;
3341;SDS011;1684;50.748;6.154;2023-08-30T12:18:21;6.43;;;2.60;;
3341;SDS011;1684;50.748;6.154;2023-08-30T12:20:51;5.20;;;2.17;;
3341;SDS011;1684;50.748;6.154;2023-08-30T12:23:20;3.90;;;2.10;;
3341;SDS011;1684;50.748;6.154;2023-08-30T12:26:01;3.70;;;2.53;;
3341;SDS011;1684;50.748;6.154;2023-08-30T12:28:33;3.93;;;2.20;;
3341;SDS011;1684;50.748;6.154;2023-08-30T12:31:02;5.37;;;2.60;;
3341;SDS011;1684;50.748;6.154;2023-08-30T12:33:31;4.20;;;2.70;;
3341;SDS011;1684;50.748;6.154;2023-08-30T12:35:59;4.03;;;2.37;;
3341;SDS011;1684;50.748;6.154;2023-08-30T12:38:28;4.13;;;2.17;;
3341;SDS011;1684;50.748;6.154;2023-08-30T12:40:56;4.37;;;2.20;;
3341;SDS011;1684;50.748;6.154;2023-08-30T12:43:24;4.27;;;2.00;;
3341;SDS011;1684;50.748;6.154;2023-08-30T12:45:54;3.77;;;1.83;;
3341;SDS011;1684;50.748;6.154;2023-08-30T12:48:23;3.73;;;1.83;;
3341;SDS011;1684;50.748;6.154;2023-08-30T12:50:51;6.17;;;2.03;;
3341;SDS011;1684;50.748;6.154;2023-08-30T12:53:19;4.30;;;2.00;;
3341;SDS011;1684;50.748;6.154;2023-08-30T12:55:48;3.00;;;1.40;;
3341;SDS011;1684;50.748;6.154;2023-08-30T12:58:16;4.00;;;1.90;;
3341;SDS011;1684;50.748;6.154;2023-08-30T13:00:44;4.10;;;1.77;;
3341;SDS011;1684;50.748;6.154;2023-08-30T13:03:14;4.37;;;1.97;;
3341;SDS011;1684;50.748;6.154;2023-08-30T13:05:42;3.60;;;1.43;;
3341;SDS011;1684;50.748;6.154;2023-08-30T13:08:10;3.20;;;1.63;;
3341;SDS011;1684;50.748;6.154;2023-08-30T13:10:39;3.03;;;1.43;;
3341;SDS011;1684;50.748;6.154;2023-08-30T13:13:07;3.00;;;1.70;;
3341;SDS011;1684;50.748;6.154;2023-08-30T13:15:36;3.80;;;2.20;;
3341;SDS011;1684;50.748;6.154;2023-08-30T13:18:04;4.90;;;2.60;;
3341;SDS011;1684;50.748;6.154;2023-08-30T13:20:41;4.50;;;2.00;;
3341;SDS011;1684;50.748;6.154;2023-08-30T13:23:09;3.00;;;1.43;;
3341;SDS011;1684;50.748;6.154;2023-08-30T13:25:38;3.40;;;1.70;;
3341;SDS011;1684;50.748;6.154;2023-08-30T13:28:07;4.00;;;2.40;;
3341;SDS011;1684;50.748;6.154;2023-08-30T13:30:35;5.20;;;2.63;;
3341;SDS011;1684;50.748;6.154;2023-08-30T13:33:04;4.87;;;2.73;;
3341;SDS011;1684;50.748;6.154;2023-08-30T13:35:32;5.23;;;2.40;;
3341;SDS011;1684;50.748;6.154;2023-08-30T13:38:03;6.17;;;2.10;;
3341;SDS011;1684;50.748;6.154;2023-08-30T13:40:31;5.07;;;2.97;;
3341;SDS011;1684;50.748;6.154;2023-08-30T13:43:00;7.47;;;3.53;;
3341;SDS011;1684;50.748;6.154;2023-08-30T13:45:29;6.20;;;3.30;;
3341;SDS011;1684;50.748;6.154;2023-08-30T13:47:57;5.00;;;2.90;;
3341;SDS011;1684;50.748;6.154;2023-08-30T13:50:26;4.00;;;2.90;;
3341;SDS011;1684;50.748;6.154;2023-08-30T13:52:57;5.40;;;2.63;;
3341;SDS011;1684;50.748;6.154;2023-08-30T13:55:27;9.10;;;4.23;;
3341;SDS011;1684;50.748;6.154;2023-08-30T13:57:57;4.87;;;2.90;;
3341;SDS011;1684;50.748;6.154;2023-08-30T14:00:25;5.97;;;3.30;;
3341;SDS011;1684;50.748;6.154;2023-08-30T14:02:53;5.53;;;3.13;;
3341;SDS011;1684;50.748;6.154;2023-08-30T14:05:22;5.37;;;3.17;;
3341;SDS011;1684;50.748;6.154;2023-08-30T14:07:50;5.90;;;3.83;;
3341;SDS011;1684;50.748;6.154;2023-08-30T14:10:19;5.80;;;3.57;;
3341;SDS011;1684;50.748;6.154;2023-08-30T14:12:51;4.70;;;3.30;;
3341;SDS011;1684;50.748;6.154;2023-08-30T14:15:20;6.20;;;3.77;;
3341;SDS011;1684;50.748;6.154;2023-08-30T14:17:48;7.30;;;4.17;;
3341;SDS011;1684;50.748;6.154;2023-08-30T14:20:16;7.87;;;4.53;;
3341;SDS011;1684;50.748;6.154;2023-08-30T14:22:45;6.57;;;4.50;;
3341;SDS011;1684;50.748;6.154;2023-08-30T14:25:13;8.30;;;4.23;;
3341;SDS011;1684;50.748;6.154;2023-08-30T14:27:41;5.90;;;3.77;;
3341;SDS011;1684;50.748;6.154;2023-08-30T14:30:11;6.30;;;4.80;;
3341;SDS011;1684;50.748;6.154;2023-08-30T14:32:40;9.10;;;4.83;;
3341;SDS011;1684;50.748;6.154;2023-08-30T14:35:08;5.03;;;3.40;;
3341;SDS011;1684;50.748;6.154;2023-08-30T14:37:37;5.77;;;4.00;;
3341;SDS011;1684;50.748;6.154;2023-08-30T14:40:06;7.33;;;4.80;;
3341;SDS011;1684;50.748;6.154;2023-08-30T14:42:34;8.10;;;4.83;;
3341;SDS011;1684;50.748;6.154;2023-08-30T14:45:04;9.80;;;5.60;;
3341;SDS011;1684;50.748;6.154;2023-08-30T14:47:34;7.90;;;4.90;;
3341;SDS011;1684;50.748;6.154;2023-08-30T14:50:02;8.43;;;5.40;;
3341;SDS011;1684;50.748;6.154;2023-08-30T14:52:33;9.07;;;5.40;;
3341;SDS011;1684;50.748;6.154;2023-08-30T14:55:01;10.53;;;4.50;;
3341;SDS011;1684;50.748;6.154;2023-08-30T14:57:29;6.87;;;4.80;;
3341;SDS011;1684;50.748;6.154;2023-08-30T14:59:58;7.67;;;5.20;;
3341;SDS011;1684;50.748;6.154;2023-08-30T15:02:26;7.37;;;4.60;;
3341;SDS011;1684;50.748;6.154;2023-08-30T15:04:56;9.40;;;5.20;;
3341;SDS011;1684;50.748;6.154;2023-08-30T15:07:25;10.60;;;5.57;;
3341;SDS011;1684;50.748;6.154;2023-08-30T15:09:53;8.13;;;5.87;;
3341;SDS011;1684;50.748;6.154;2023-08-30T15:12:21;8.43;;;5.70;;
3341;SDS011;1684;50.748;6.154;2023-08-30T15:14:49;8.60;;;6.17;;